Aviation Digital Data Service (ADDS)

Output produced by METARs form (0536 UTC 21 January 2019)
found at http://www.aviationweather.gov/metar/data/
 
METAR text: VOCB 210530Z 04005KT 5000 HZ FEW015 SCT080 24/14 Q1018 NOSIG
Conditions at: VOCB (COIMBATORE/PEELA, IN) observed 0530 UTC 21 January 2019
Temperature: 24.0°C (75°F)
Dewpoint: 14.0°C (57°F) [RH = 54%]
Pressure (altimeter): 30.06 inches Hg (1018.0 mb)
Winds: from the NE (40 degrees) at 6 MPH (5 knots; 2.6 m/s)
Visibility: 3 miles ( 5 km)
Ceiling: at least 12,000 feet AGL
Clouds: few clouds at 1500 feet AGL
scattered clouds at 8000 feet AGL
Weather: HZ  (haze)

METAR text: VOCB 210500Z 07004KT 5000 HZ FEW015 SCT080 23/15 Q1018 NOSIG
Conditions at: VOCB (COIMBATORE/PEELA, IN) observed 0500 UTC 21 January 2019
Temperature: 23.0°C (73°F)
Dewpoint: 15.0°C (59°F) [RH = 61%]
Pressure (altimeter): 30.06 inches Hg (1018.0 mb)
Winds: from the ENE (70 degrees) at 5 MPH (4 knots; 2.1 m/s)
Visibility: 3 miles ( 5 km)
Ceiling: at least 12,000 feet AGL
Clouds: few clouds at 1500 feet AGL
scattered clouds at 8000 feet AGL
Weather: HZ  (haze)

METAR text: VOCB 210430Z 07004KT 4500 HZ FEW015 SCT080 23/15 Q1019 BECMG 5000 HZ
Conditions at: VOCB (COIMBATORE/PEELA, IN) observed 0430 UTC 21 January 2019
Temperature: 23.0°C (73°F)
Dewpoint: 15.0°C (59°F) [RH = 61%]
Pressure (altimeter): 30.09 inches Hg (1019.0 mb)
Winds: from the ENE (70 degrees) at 5 MPH (4 knots; 2.1 m/s)
Visibility: 2.80 miles (4.51 km)
Ceiling: at least 12,000 feet AGL
Clouds: few clouds at 1500 feet AGL
scattered clouds at 8000 feet AGL
Weather: HZ  (haze)

METAR text: VOCB 210400Z 09004KT 4000 BR FEW015 SCT080 22/16 Q1019 NOSIG
Conditions at: VOCB (COIMBATORE/PEELA, IN) observed 0400 UTC 21 January 2019
Temperature: 22.0°C (72°F)
Dewpoint: 16.0°C (61°F) [RH = 69%]
Pressure (altimeter): 30.09 inches Hg (1019.0 mb)
Winds: from the E (90 degrees) at 5 MPH (4 knots; 2.1 m/s)
Visibility: 2.49 miles (4.01 km)
Ceiling: at least 12,000 feet AGL
Clouds: few clouds at 1500 feet AGL
scattered clouds at 8000 feet AGL
Weather: BR  (mist)

METAR text: VOCB 210330Z VRB02KT 3500 BR FEW015 SCT080 21/17 Q1019 NOSIG
Conditions at: VOCB (COIMBATORE/PEELA, IN) observed 0330 UTC 21 January 2019
Temperature: 21.0°C (70°F)
Dewpoint: 17.0°C (63°F) [RH = 78%]
Pressure (altimeter): 30.09 inches Hg (1019.0 mb)
Winds: variable direction winds at 2 MPH (2 knots; 1.0 m/s)
Visibility: 2.17 miles (3.49 km)
Ceiling: at least 12,000 feet AGL
Clouds: few clouds at 1500 feet AGL
scattered clouds at 8000 feet AGL
Weather: BR  (mist)

METAR text: VOCB 210300Z VRB02KT 3000 BR FEW015 SCT080 19/15 Q1018 NOSIG
Conditions at: VOCB (COIMBATORE/PEELA, IN) observed 0300 UTC 21 January 2019
Temperature: 19.0°C (66°F)
Dewpoint: 15.0°C (59°F) [RH = 78%]
Pressure (altimeter): 30.06 inches Hg (1018.0 mb)
Winds: variable direction winds at 2 MPH (2 knots; 1.0 m/s)
Visibility: 1.86 miles (2.99 km)
Ceiling: at least 12,000 feet AGL
Clouds: few clouds at 1500 feet AGL
scattered clouds at 8000 feet AGL
Weather: BR  (mist)

METAR text: VOCB 210230Z VRB02KT 2500 BR FEW015 SCT080 18/15 Q1018 BECMG 3000 BR
Conditions at: VOCB (COIMBATORE/PEELA, IN) observed 0230 UTC 21 January 2019
Temperature: 18.0°C (64°F)
Dewpoint: 15.0°C (59°F) [RH = 83%]
Pressure (altimeter): 30.06 inches Hg (1018.0 mb)
Winds: variable direction winds at 2 MPH (2 knots; 1.0 m/s)
Visibility: 1.55 miles (2.49 km)
Ceiling: at least 12,000 feet AGL
Clouds: few clouds at 1500 feet AGL
scattered clouds at 8000 feet AGL
Weather: BR  (mist)

METAR text: VOCB 210200Z VRB02KT 2000 BR FEW015 SCT080 18/15 Q1017 NOSIG
Conditions at: VOCB (COIMBATORE/PEELA, IN) observed 0200 UTC 21 January 2019
Temperature: 18.0°C (64°F)
Dewpoint: 15.0°C (59°F) [RH = 83%]
Pressure (altimeter): 30.03 inches Hg (1017.0 mb)
Winds: variable direction winds at 2 MPH (2 knots; 1.0 m/s)
Visibility: 1.24 miles (2.00 km)
Ceiling: at least 12,000 feet AGL
Clouds: few clouds at 1500 feet AGL
scattered clouds at 8000 feet AGL
Weather: BR  (mist)

METAR text: VOCB 210130Z VRB02KT 2000 BR FEW015 SCT080 18/15 Q1017 TEMPO 1500 BR
Conditions at: VOCB (COIMBATORE/PEELA, IN) observed 0130 UTC 21 January 2019
Temperature: 18.0°C (64°F)
Dewpoint: 15.0°C (59°F) [RH = 83%]
Pressure (altimeter): 30.03 inches Hg (1017.0 mb)
Winds: variable direction winds at 2 MPH (2 knots; 1.0 m/s)
Visibility: 1.24 miles (2.00 km)
Ceiling: at least 12,000 feet AGL
Clouds: few clouds at 1500 feet AGL
scattered clouds at 8000 feet AGL
Weather: BR  (mist)

METAR text: VOCB 210100Z 34003KT 2500 BR NSC 17/15 Q1016 TEMPO 1500 BR
Conditions at: VOCB (COIMBATORE/PEELA, IN) observed 0100 UTC 21 January 2019
Temperature: 17.0°C (63°F)
Dewpoint: 15.0°C (59°F) [RH = 88%]
Pressure (altimeter): 30.00 inches Hg (1016.0 mb)
Winds: from the NNW (340 degrees) at 3 MPH (3 knots; 1.5 m/s)
Visibility: 1.55 miles (2.49 km)
Ceiling: at least 12,000 feet AGL
Clouds: sky clear below 12,000 feet AGL
Weather: BR  (mist)

METAR text: VOCB 210030Z 33003KT 3000 BR NSC 18/15 Q1016 NOSIG
Conditions at: VOCB (COIMBATORE/PEELA, IN) observed 0030 UTC 21 January 2019
Temperature: 18.0°C (64°F)
Dewpoint: 15.0°C (59°F) [RH = 83%]
Pressure (altimeter): 30.00 inches Hg (1016.0 mb)
Winds: from the NNW (330 degrees) at 3 MPH (3 knots; 1.5 m/s)
Visibility: 1.86 miles (2.99 km)
Ceiling: at least 12,000 feet AGL
Clouds: sky clear below 12,000 feet AGL
Weather: BR  (mist)

METAR text: VOCB 210000Z 32003KT 3000 BR NSC 18/15 Q1016 NOSIG
Conditions at: VOCB (COIMBATORE/PEELA, IN) observed 0000 UTC 21 January 2019
Temperature: 18.0°C (64°F)
Dewpoint: 15.0°C (59°F) [RH = 83%]
Pressure (altimeter): 30.00 inches Hg (1016.0 mb)
Winds: from the NW (320 degrees) at 3 MPH (3 knots; 1.5 m/s)
Visibility: 1.86 miles (2.99 km)
Ceiling: at least 12,000 feet AGL
Clouds: sky clear below 12,000 feet AGL
Weather: BR  (mist)

METAR text: VOCB 202330Z 33003KT 3000 BR NSC 18/14 Q1016 NOSIG
Conditions at: VOCB (COIMBATORE/PEELA, IN) observed 2330 UTC 20 January 2019
Temperature: 18.0°C (64°F)
Dewpoint: 14.0°C (57°F) [RH = 77%]
Pressure (altimeter): 30.00 inches Hg (1016.0 mb)
Winds: from the NNW (330 degrees) at 3 MPH (3 knots; 1.5 m/s)
Visibility: 1.86 miles (2.99 km)
Ceiling: at least 12,000 feet AGL
Clouds: sky clear below 12,000 feet AGL
Weather: BR  (mist)

METAR text: VOCB 202300Z VRB02KT 3000 BR NSC 18/14 Q1016 NOSIG
Conditions at: VOCB (COIMBATORE/PEELA, IN) observed 2300 UTC 20 January 2019
Temperature: 18.0°C (64°F)
Dewpoint: 14.0°C (57°F) [RH = 77%]
Pressure (altimeter): 30.00 inches Hg (1016.0 mb)
Winds: variable direction winds at 2 MPH (2 knots; 1.0 m/s)
Visibility: 1.86 miles (2.99 km)
Ceiling: at least 12,000 feet AGL
Clouds: sky clear below 12,000 feet AGL
Weather: BR  (mist)

METAR text: VOCB 202230Z 32003KT 3000 HZ NSC 19/14 Q1016 NOSIG
Conditions at: VOCB (COIMBATORE/PEELA, IN) observed 2230 UTC 20 January 2019
Temperature: 19.0°C (66°F)
Dewpoint: 14.0°C (57°F) [RH = 73%]
Pressure (altimeter): 30.00 inches Hg (1016.0 mb)
Winds: from the NW (320 degrees) at 3 MPH (3 knots; 1.5 m/s)
Visibility: 1.86 miles (2.99 km)
Ceiling: at least 12,000 feet AGL
Clouds: sky clear below 12,000 feet AGL
Weather: HZ  (haze)

METAR text: VOCB 202200Z 05003KT 3000 HZ NSC 19/14 Q1016 NOSIG
Conditions at: VOCB (COIMBATORE/PEELA, IN) observed 2200 UTC 20 January 2019
Temperature: 19.0°C (66°F)
Dewpoint: 14.0°C (57°F) [RH = 73%]
Pressure (altimeter): 30.00 inches Hg (1016.0 mb)
Winds: from the NE (50 degrees) at 3 MPH (3 knots; 1.5 m/s)
Visibility: 1.86 miles (2.99 km)
Ceiling: at least 12,000 feet AGL
Clouds: sky clear below 12,000 feet AGL
Weather: HZ  (haze)

METAR text: VOCB 202130Z 06005KT 3000 HZ NSC 19/13 Q1016 NOSIG
Conditions at: VOCB (COIMBATORE/PEELA, IN) observed 2130 UTC 20 January 2019
Temperature: 19.0°C (66°F)
Dewpoint: 13.0°C (55°F) [RH = 68%]
Pressure (altimeter): 30.00 inches Hg (1016.0 mb)
Winds: from the ENE (60 degrees) at 6 MPH (5 knots; 2.6 m/s)
Visibility: 1.86 miles (2.99 km)
Ceiling: at least 12,000 feet AGL
Clouds: sky clear below 12,000 feet AGL
Weather: HZ  (haze)

METAR text: VOCB 202100Z 00000KT 3000 HZ NSC 19/13 Q1016 NOSIG
Conditions at: VOCB (COIMBATORE/PEELA, IN) observed 2100 UTC 20 January 2019
Temperature: 19.0°C (66°F)
Dewpoint: 13.0°C (55°F) [RH = 68%]
Pressure (altimeter): 30.00 inches Hg (1016.0 mb)
Winds: calm
Visibility: 1.86 miles (2.99 km)
Ceiling: at least 12,000 feet AGL
Clouds: sky clear below 12,000 feet AGL
Weather: HZ  (haze)

METAR text: VOCB 202030Z VRB02KT 4000 HZ NSC 20/12 Q1017 BECOMING 3000 HZ
Conditions at: VOCB (COIMBATORE/PEELA, IN) observed 2030 UTC 20 January 2019
Temperature: 20.0°C (68°F)
Dewpoint: 12.0°C (54°F) [RH = 60%]
Pressure (altimeter): 30.03 inches Hg (1017.0 mb)
Winds: variable direction winds at 2 MPH (2 knots; 1.0 m/s)
Visibility: 2.49 miles (4.01 km)
Ceiling: at least 12,000 feet AGL
Clouds: sky clear below 12,000 feet AGL
Weather: HZ HZ  (haze, haze)

METAR text: VOCB 202000Z 02003KT 4000 HZ NSC 20/12 Q1017 NOSIG
Conditions at: VOCB (COIMBATORE/PEELA, IN) observed 2000 UTC 20 January 2019
Temperature: 20.0°C (68°F)
Dewpoint: 12.0°C (54°F) [RH = 60%]
Pressure (altimeter): 30.03 inches Hg (1017.0 mb)
Winds: from the NNE (20 degrees) at 3 MPH (3 knots; 1.5 m/s)
Visibility: 2.49 miles (4.01 km)
Ceiling: at least 12,000 feet AGL
Clouds: sky clear below 12,000 feet AGL
Weather: HZ  (haze)

METAR text: VOCB 201900Z 02003KT 4000 HZ NSC 21/10 Q1017 NOSIG
Conditions at: VOCB (COIMBATORE/PEELA, IN) observed 1900 UTC 20 January 2019
Temperature: 21.0°C (70°F)
Dewpoint: 10.0°C (50°F) [RH = 49%]
Pressure (altimeter): 30.03 inches Hg (1017.0 mb)
Winds: from the NNE (20 degrees) at 3 MPH (3 knots; 1.5 m/s)
Visibility: 2.49 miles (4.01 km)
Ceiling: at least 12,000 feet AGL
Clouds: sky clear below 12,000 feet AGL
Weather: HZ  (haze)

METAR text: VOCB 201800Z 06005KT 5000 HZ NSC 21/10 Q1018 NOSIG
Conditions at: VOCB (COIMBATORE/PEELA, IN) observed 1800 UTC 20 January 2019
Temperature: 21.0°C (70°F)
Dewpoint: 10.0°C (50°F) [RH = 49%]
Pressure (altimeter): 30.06 inches Hg (1018.0 mb)
Winds: from the ENE (60 degrees) at 6 MPH (5 knots; 2.6 m/s)
Visibility: 3 miles ( 5 km)
Ceiling: at least 12,000 feet AGL
Clouds: sky clear below 12,000 feet AGL
Weather: HZ  (haze)

METAR text: VOCB 201730Z 03004KT 5000 HZ NSC 21/10 Q1018 NOSIG
Conditions at: VOCB (COIMBATORE/PEELA, IN) observed 1730 UTC 20 January 2019
Temperature: 21.0°C (70°F)
Dewpoint: 10.0°C (50°F) [RH = 49%]
Pressure (altimeter): 30.06 inches Hg (1018.0 mb)
Winds: from the NNE (30 degrees) at 5 MPH (4 knots; 2.1 m/s)
Visibility: 3 miles ( 5 km)
Ceiling: at least 12,000 feet AGL
Clouds: sky clear below 12,000 feet AGL
Weather: HZ  (haze)

METAR text: VOCB 201700Z 03004KT 5000 HZ NSC 22/09 Q1018 NOSIG
Conditions at: VOCB (COIMBATORE/PEELA, IN) observed 1700 UTC 20 January 2019
Temperature: 22.0°C (72°F)
Dewpoint: 9.0°C (48°F) [RH = 43%]
Pressure (altimeter): 30.06 inches Hg (1018.0 mb)
Winds: from the NNE (30 degrees) at 5 MPH (4 knots; 2.1 m/s)
Visibility: 3 miles ( 5 km)
Ceiling: at least 12,000 feet AGL
Clouds: sky clear below 12,000 feet AGL
Weather: HZ  (haze)

METAR text: VOCB 201630Z 04004KT 5000 HZ NSC 22/11 Q1018 NOSIG
Conditions at: VOCB (COIMBATORE/PEELA, IN) observed 1630 UTC 20 January 2019
Temperature: 22.0°C (72°F)
Dewpoint: 11.0°C (52°F) [RH = 50%]
Pressure (altimeter): 30.06 inches Hg (1018.0 mb)
Winds: from the NE (40 degrees) at 5 MPH (4 knots; 2.1 m/s)
Visibility: 3 miles ( 5 km)
Ceiling: at least 12,000 feet AGL
Clouds: sky clear below 12,000 feet AGL
Weather: HZ  (haze)

METAR text: VOCB 201600Z 03004KT 5000 HZ NSC 22/11 Q1017 NOSIG
Conditions at: VOCB (COIMBATORE/PEELA, IN) observed 1600 UTC 20 January 2019
Temperature: 22.0°C (72°F)
Dewpoint: 11.0°C (52°F) [RH = 50%]
Pressure (altimeter): 30.03 inches Hg (1017.0 mb)
Winds: from the NNE (30 degrees) at 5 MPH (4 knots; 2.1 m/s)
Visibility: 3 miles ( 5 km)
Ceiling: at least 12,000 feet AGL
Clouds: sky clear below 12,000 feet AGL
Weather: HZ  (haze)

METAR text: VOCB 201530Z 09005KT 5000 HZ FEW015 24/10 Q1017 NOSIG
Conditions at: VOCB (COIMBATORE/PEELA, IN) observed 1530 UTC 20 January 2019
Temperature: 24.0°C (75°F)
Dewpoint: 10.0°C (50°F) [RH = 41%]
Pressure (altimeter): 30.03 inches Hg (1017.0 mb)
Winds: from the E (90 degrees) at 6 MPH (5 knots; 2.6 m/s)
Visibility: 3 miles ( 5 km)
Ceiling: at least 12,000 feet AGL
Clouds: few clouds at 1500 feet AGL
Weather: HZ  (haze)

METAR text: VOCB 201500Z 09005KT 5000 HZ FEW015 24/10 Q1017 NOSIG
Conditions at: VOCB (COIMBATORE/PEELA, IN) observed 1500 UTC 20 January 2019
Temperature: 24.0°C (75°F)
Dewpoint: 10.0°C (50°F) [RH = 41%]
Pressure (altimeter): 30.03 inches Hg (1017.0 mb)
Winds: from the E (90 degrees) at 6 MPH (5 knots; 2.6 m/s)
Visibility: 3 miles ( 5 km)
Ceiling: at least 12,000 feet AGL
Clouds: few clouds at 1500 feet AGL
Weather: HZ  (haze)

METAR text: VOCB 201430Z 10004KT 5000 HZ FEW015 25/09 Q1016 NOSIG
Conditions at: VOCB (COIMBATORE/PEELA, IN) observed 1430 UTC 20 January 2019
Temperature: 25.0°C (77°F)
Dewpoint: 9.0°C (48°F) [RH = 36%]
Pressure (altimeter): 30.00 inches Hg (1016.0 mb)
Winds: from the E (100 degrees) at 5 MPH (4 knots; 2.1 m/s)
Visibility: 3 miles ( 5 km)
Ceiling: at least 12,000 feet AGL
Clouds: few clouds at 1500 feet AGL
Weather: HZ  (haze)

METAR text: VOCB 201400Z 11004KT 5000 HZ FEW015 25/09 Q1016 NOSIG
Conditions at: VOCB (COIMBATORE/PEELA, IN) observed 1400 UTC 20 January 2019
Temperature: 25.0°C (77°F)
Dewpoint: 9.0°C (48°F) [RH = 36%]
Pressure (altimeter): 30.00 inches Hg (1016.0 mb)
Winds: from the ESE (110 degrees) at 5 MPH (4 knots; 2.1 m/s)
Visibility: 3 miles ( 5 km)
Ceiling: at least 12,000 feet AGL
Clouds: few clouds at 1500 feet AGL
Weather: HZ  (haze)

METAR text: VOCB 201330Z 09004KT 6000 FEW015 25/09 Q1015 BECMG 5000 HZ
Conditions at: VOCB (COIMBATORE/PEELA, IN) observed 1330 UTC 20 January 2019
Temperature: 25.0°C (77°F)
Dewpoint: 9.0°C (48°F) [RH = 36%]
Pressure (altimeter): 29.97 inches Hg (1015.0 mb)
Winds: from the E (90 degrees) at 5 MPH (4 knots; 2.1 m/s)
Visibility: 4 miles ( 6 km)
Ceiling: at least 12,000 feet AGL
Clouds: few clouds at 1500 feet AGL
Weather: no significant weather observed at this time

METAR text: VOCB 201300Z 09005KT 6000 FEW015 26/08 Q1015 NOSIG
Conditions at: VOCB (COIMBATORE/PEELA, IN) observed 1300 UTC 20 January 2019
Temperature: 26.0°C (79°F)
Dewpoint: 8.0°C (46°F) [RH = 32%]
Pressure (altimeter): 29.97 inches Hg (1015.0 mb)
Winds: from the E (90 degrees) at 6 MPH (5 knots; 2.6 m/s)
Visibility: 4 miles ( 6 km)
Ceiling: at least 12,000 feet AGL
Clouds: few clouds at 1500 feet AGL
Weather: no significant weather observed at this time

METAR text: VOCB 201230Z 09006KT 7000 FEW015 27/07 Q1015 NOSIG
Conditions at: VOCB (COIMBATORE/PEELA, IN) observed 1230 UTC 20 January 2019
Temperature: 27.0°C (81°F)
Dewpoint: 7.0°C (45°F) [RH = 28%]
Pressure (altimeter): 29.97 inches Hg (1015.0 mb)
Winds: from the E (90 degrees) at 7 MPH (6 knots; 3.1 m/s)
Visibility: 4 miles ( 7 km)
Ceiling: at least 12,000 feet AGL
Clouds: few clouds at 1500 feet AGL
Weather: no significant weather observed at this time

METAR text: VOCB 201200Z 07006KT 7000 FEW015 28/05 Q1014 NOSIG
Conditions at: VOCB (COIMBATORE/PEELA, IN) observed 1200 UTC 20 January 2019
Temperature: 28.0°C (82°F)
Dewpoint: 5.0°C (41°F) [RH = 23%]
Pressure (altimeter): 29.94 inches Hg (1014.0 mb)
Winds: from the ENE (70 degrees) at 7 MPH (6 knots; 3.1 m/s)
Visibility: 4 miles ( 7 km)
Ceiling: at least 12,000 feet AGL
Clouds: few clouds at 1500 feet AGL
Weather: no significant weather observed at this time

METAR text: VOCB 201130Z 06007KT 7000 FEW015 29/03 Q1014 NOSIG
Conditions at: VOCB (COIMBATORE/PEELA, IN) observed 1130 UTC 20 January 2019
Temperature: 29.0°C (84°F)
Dewpoint: 3.0°C (37°F) [RH = 19%]
Pressure (altimeter): 29.94 inches Hg (1014.0 mb)
Winds: from the ENE (60 degrees) at 8 MPH (7 knots; 3.6 m/s)
Visibility: 4 miles ( 7 km)
Ceiling: at least 12,000 feet AGL
Clouds: few clouds at 1500 feet AGL
Weather: no significant weather observed at this time

METAR text: VOCB 201100Z 08009KT 7000 FEW015 29/02 Q1014 NOSIG
Conditions at: VOCB (COIMBATORE/PEELA, IN) observed 1100 UTC 20 January 2019
Temperature: 29.0°C (84°F)
Dewpoint: 2.0°C (36°F) [RH = 18%]
Pressure (altimeter): 29.94 inches Hg (1014.0 mb)
Winds: from the E (80 degrees) at 10 MPH (9 knots; 4.6 m/s)
Visibility: 4 miles ( 7 km)
Ceiling: at least 12,000 feet AGL
Clouds: few clouds at 1500 feet AGL
Weather: no significant weather observed at this time

METAR text: VOCB 201030Z 09008KT 7000 FEW015 29/02 Q1014 NOSIG
Conditions at: VOCB (COIMBATORE/PEELA, IN) observed 1030 UTC 20 January 2019
Temperature: 29.0°C (84°F)
Dewpoint: 2.0°C (36°F) [RH = 18%]
Pressure (altimeter): 29.94 inches Hg (1014.0 mb)
Winds: from the E (90 degrees) at 9 MPH (8 knots; 4.1 m/s)
Visibility: 4 miles ( 7 km)
Ceiling: at least 12,000 feet AGL
Clouds: few clouds at 1500 feet AGL
Weather: no significant weather observed at this time

METAR text: VOCB 201000Z 07009KT 7000 FEW015 29/02 Q1015 NOSIG
Conditions at: VOCB (COIMBATORE/PEELA, IN) observed 1000 UTC 20 January 2019
Temperature: 29.0°C (84°F)
Dewpoint: 2.0°C (36°F) [RH = 18%]
Pressure (altimeter): 29.97 inches Hg (1015.0 mb)
Winds: from the ENE (70 degrees) at 10 MPH (9 knots; 4.6 m/s)
Visibility: 4 miles ( 7 km)
Ceiling: at least 12,000 feet AGL
Clouds: few clouds at 1500 feet AGL
Weather: no significant weather observed at this time

METAR text: VOCB 200930Z 07012KT 7000 FEW015 29/03 Q1015 NOSIG
Conditions at: VOCB (COIMBATORE/PEELA, IN) observed 0930 UTC 20 January 2019
Temperature: 29.0°C (84°F)
Dewpoint: 3.0°C (37°F) [RH = 19%]
Pressure (altimeter): 29.97 inches Hg (1015.0 mb)
Winds: from the ENE (70 degrees) at 14 MPH (12 knots; 6.2 m/s)
Visibility: 4 miles ( 7 km)
Ceiling: at least 12,000 feet AGL
Clouds: few clouds at 1500 feet AGL
Weather: no significant weather observed at this time

METAR text: VOCB 200900Z 09011KT 7000 FEW015 29/03 Q1015 NOSIG
Conditions at: VOCB (COIMBATORE/PEELA, IN) observed 0900 UTC 20 January 2019
Temperature: 29.0°C (84°F)
Dewpoint: 3.0°C (37°F) [RH = 19%]
Pressure (altimeter): 29.97 inches Hg (1015.0 mb)
Winds: from the E (90 degrees) at 13 MPH (11 knots; 5.7 m/s)
Visibility: 4 miles ( 7 km)
Ceiling: at least 12,000 feet AGL
Clouds: few clouds at 1500 feet AGL
Weather: no significant weather observed at this time

METAR text: VOCB 200830Z 06010KT 7000 FRE015 29/03 Q1016 NOSIG
Conditions at: VOCB (COIMBATORE/PEELA, IN) observed 0830 UTC 20 January 2019
Temperature: 29.0°C (84°F)
Dewpoint: 3.0°C (37°F) [RH = 19%]
Pressure (altimeter): 30.00 inches Hg (1016.0 mb)
Winds: from the ENE (60 degrees) at 12 MPH (10 knots; 5.1 m/s)
Visibility: 4 miles ( 7 km)
Ceiling: unknown
Clouds: missing
Weather: no significant weather observed at this time

METAR text: VOCB 200800Z 07011KT 7000 NSC 29/02 Q1016 NOSIG
Conditions at: VOCB (COIMBATORE/PEELA, IN) observed 0800 UTC 20 January 2019
Temperature: 29.0°C (84°F)
Dewpoint: 2.0°C (36°F) [RH = 18%]
Pressure (altimeter): 30.00 inches Hg (1016.0 mb)
Winds: from the ENE (70 degrees) at 13 MPH (11 knots; 5.7 m/s)
Visibility: 4 miles ( 7 km)
Ceiling: at least 12,000 feet AGL
Clouds: sky clear below 12,000 feet AGL
Weather: no significant weather observed at this time

METAR text: VOCB 200730Z 06010KT 6000 NSC 29/07 Q1017 NOSIG
Conditions at: VOCB (COIMBATORE/PEELA, IN) observed 0730 UTC 20 January 2019
Temperature: 29.0°C (84°F)
Dewpoint: 7.0°C (45°F) [RH = 25%]
Pressure (altimeter): 30.03 inches Hg (1017.0 mb)
Winds: from the ENE (60 degrees) at 12 MPH (10 knots; 5.1 m/s)
Visibility: 4 miles ( 6 km)
Ceiling: at least 12,000 feet AGL
Clouds: sky clear below 12,000 feet AGL
Weather: no significant weather observed at this time

METAR text: VOCB 200700Z 05012KT 6000 NSC 28/07 Q1017 NOSIG
Conditions at: VOCB (COIMBATORE/PEELA, IN) observed 0700 UTC 20 January 2019
Temperature: 28.0°C (82°F)
Dewpoint: 7.0°C (45°F) [RH = 27%]
Pressure (altimeter): 30.03 inches Hg (1017.0 mb)
Winds: from the NE (50 degrees) at 14 MPH (12 knots; 6.2 m/s)
Visibility: 4 miles ( 6 km)
Ceiling: at least 12,000 feet AGL
Clouds: sky clear below 12,000 feet AGL
Weather: no significant weather observed at this time

METAR text: VOCB 200630Z 04010KT 6000 NSC 27/14 Q1018 NOSIG
Conditions at: VOCB (COIMBATORE/PEELA, IN) observed 0630 UTC 20 January 2019
Temperature: 27.0°C (81°F)
Dewpoint: 14.0°C (57°F) [RH = 45%]
Pressure (altimeter): 30.06 inches Hg (1018.0 mb)
Winds: from the NE (40 degrees) at 12 MPH (10 knots; 5.1 m/s)
Visibility: 4 miles ( 6 km)
Ceiling: at least 12,000 feet AGL
Clouds: sky clear below 12,000 feet AGL
Weather: no significant weather observed at this time

METAR text: VOCB 200600Z 08005KT 5000 HZ NSC 26/14 Q1019 NOSIG
Conditions at: VOCB (COIMBATORE/PEELA, IN) observed 0600 UTC 20 January 2019
Temperature: 26.0°C (79°F)
Dewpoint: 14.0°C (57°F) [RH = 48%]
Pressure (altimeter): 30.09 inches Hg (1019.0 mb)
Winds: from the E (80 degrees) at 6 MPH (5 knots; 2.6 m/s)
Visibility: 3 miles ( 5 km)
Ceiling: at least 12,000 feet AGL
Clouds: sky clear below 12,000 feet AGL
Weather: HZ  (haze)

METAR text: VOCB 200530Z 03005KT 4000 HZ NSC 25/16 Q1019 BECMG 5000 HZ
Conditions at: VOCB (COIMBATORE/PEELA, IN) observed 0530 UTC 20 January 2019
Temperature: 25.0°C (77°F)
Dewpoint: 16.0°C (61°F) [RH = 57%]
Pressure (altimeter): 30.09 inches Hg (1019.0 mb)
Winds: from the NNE (30 degrees) at 6 MPH (5 knots; 2.6 m/s)
Visibility: 2.49 miles (4.01 km)
Ceiling: at least 12,000 feet AGL
Clouds: sky clear below 12,000 feet AGL
Weather: HZ  (haze)

METAR text: VOCB 200500Z 05006KT 4000 HZ NSC 24/16 Q1019 NOSIG
Conditions at: VOCB (COIMBATORE/PEELA, IN) observed 0500 UTC 20 January 2019
Temperature: 24.0°C (75°F)
Dewpoint: 16.0°C (61°F) [RH = 61%]
Pressure (altimeter): 30.09 inches Hg (1019.0 mb)
Winds: from the NE (50 degrees) at 7 MPH (6 knots; 3.1 m/s)
Visibility: 2.49 miles (4.01 km)
Ceiling: at least 12,000 feet AGL
Clouds: sky clear below 12,000 feet AGL
Weather: HZ  (haze)

METAR text: VOCB 200430Z 04004KT 4000 HZ NSC 23/17 Q1020 NOSIG
Conditions at: VOCB (COIMBATORE/PEELA, IN) observed 0430 UTC 20 January 2019
Temperature: 23.0°C (73°F)
Dewpoint: 17.0°C (63°F) [RH = 69%]
Pressure (altimeter): 30.12 inches Hg (1020.0 mb)
Winds: from the NE (40 degrees) at 5 MPH (4 knots; 2.1 m/s)
Visibility: 2.49 miles (4.01 km)
Ceiling: at least 12,000 feet AGL
Clouds: sky clear below 12,000 feet AGL
Weather: HZ  (haze)

METAR text: VOCB 200400Z 04004KT 3000 HZ NSC 22/17 Q1020 BECMG 4000 BR
Conditions at: VOCB (COIMBATORE/PEELA, IN) observed 0400 UTC 20 January 2019
Temperature: 22.0°C (72°F)
Dewpoint: 17.0°C (63°F) [RH = 73%]
Pressure (altimeter): 30.12 inches Hg (1020.0 mb)
Winds: from the NE (40 degrees) at 5 MPH (4 knots; 2.1 m/s)
Visibility: 1.86 miles (2.99 km)
Ceiling: at least 12,000 feet AGL
Clouds: sky clear below 12,000 feet AGL
Weather: HZ  (haze)

METAR text: VOCB 200330Z 05004KT 3000 HZ NSC 21/16 Q1020 BECMG 4000 BR
Conditions at: VOCB (COIMBATORE/PEELA, IN) observed 0330 UTC 20 January 2019
Temperature: 21.0°C (70°F)
Dewpoint: 16.0°C (61°F) [RH = 73%]
Pressure (altimeter): 30.12 inches Hg (1020.0 mb)
Winds: from the NE (50 degrees) at 5 MPH (4 knots; 2.1 m/s)
Visibility: 1.86 miles (2.99 km)
Ceiling: at least 12,000 feet AGL
Clouds: sky clear below 12,000 feet AGL
Weather: HZ  (haze)

METAR text: VOCB 200300Z 08004KT 2500 BR NSC 20/17 Q1019 BECMG 3000 BR
Conditions at: VOCB (COIMBATORE/PEELA, IN) observed 0300 UTC 20 January 2019
Temperature: 20.0°C (68°F)
Dewpoint: 17.0°C (63°F) [RH = 83%]
Pressure (altimeter): 30.09 inches Hg (1019.0 mb)
Winds: from the E (80 degrees) at 5 MPH (4 knots; 2.1 m/s)
Visibility: 1.55 miles (2.49 km)
Ceiling: at least 12,000 feet AGL
Clouds: sky clear below 12,000 feet AGL
Weather: BR  (mist)

METAR text: VOCB 200230Z 08005KT 2000 BR NSC 19/16 Q1019 NOSIG
Conditions at: VOCB (COIMBATORE/PEELA, IN) observed 0230 UTC 20 January 2019
Temperature: 19.0°C (66°F)
Dewpoint: 16.0°C (61°F) [RH = 83%]
Pressure (altimeter): 30.09 inches Hg (1019.0 mb)
Winds: from the E (80 degrees) at 6 MPH (5 knots; 2.6 m/s)
Visibility: 1.24 miles (2.00 km)
Ceiling: at least 12,000 feet AGL
Clouds: sky clear below 12,000 feet AGL
Weather: BR  (mist)

METAR text: VOCB 200200Z 00000KT 1500 BR NSC 18/16 Q1018 NOSIG
Conditions at: VOCB (COIMBATORE/PEELA, IN) observed 0200 UTC 20 January 2019
Temperature: 18.0°C (64°F)
Dewpoint: 16.0°C (61°F) [RH = 88%]
Pressure (altimeter): 30.06 inches Hg (1018.0 mb)
Winds: calm
Visibility: 0.93 miles (1.50 km)
Ceiling: at least 12,000 feet AGL
Clouds: sky clear below 12,000 feet AGL
Weather: BR  (mist)

METAR text: VOCB 200130Z 00000KT 1500 BR NSC 18/16 Q1018 NOSIG
Conditions at: VOCB (COIMBATORE/PEELA, IN) observed 0130 UTC 20 January 2019
Temperature: 18.0°C (64°F)
Dewpoint: 16.0°C (61°F) [RH = 88%]
Pressure (altimeter): 30.06 inches Hg (1018.0 mb)
Winds: calm
Visibility: 0.93 miles (1.50 km)
Ceiling: at least 12,000 feet AGL
Clouds: sky clear below 12,000 feet AGL
Weather: BR  (mist)

METAR text: VOCB 200100Z 00000KT 1500 BR NSC 18/16 Q1017 NOSIG
Conditions at: VOCB (COIMBATORE/PEELA, IN) observed 0100 UTC 20 January 2019
Temperature: 18.0°C (64°F)
Dewpoint: 16.0°C (61°F) [RH = 88%]
Pressure (altimeter): 30.03 inches Hg (1017.0 mb)
Winds: calm
Visibility: 0.93 miles (1.50 km)
Ceiling: at least 12,000 feet AGL
Clouds: sky clear below 12,000 feet AGL
Weather: BR  (mist)

METAR text: VOCB 200030Z VRB02KT 2000 BR NSC 18/16 Q1017 TEMPO 1500 BR
Conditions at: VOCB (COIMBATORE/PEELA, IN) observed 0030 UTC 20 January 2019
Temperature: 18.0°C (64°F)
Dewpoint: 16.0°C (61°F) [RH = 88%]
Pressure (altimeter): 30.03 inches Hg (1017.0 mb)
Winds: variable direction winds at 2 MPH (2 knots; 1.0 m/s)
Visibility: 1.24 miles (2.00 km)
Ceiling: at least 12,000 feet AGL
Clouds: sky clear below 12,000 feet AGL
Weather: BR  (mist)

METAR text: VOCB 200000Z 00000KT 2000 BR NSC 18/16 Q1017 NOSIG
Conditions at: VOCB (COIMBATORE/PEELA, IN) observed 0000 UTC 20 January 2019
Temperature: 18.0°C (64°F)
Dewpoint: 16.0°C (61°F) [RH = 88%]
Pressure (altimeter): 30.03 inches Hg (1017.0 mb)
Winds: calm
Visibility: 1.24 miles (2.00 km)
Ceiling: at least 12,000 feet AGL
Clouds: sky clear below 12,000 feet AGL
Weather: BR  (mist)

METAR text: VOCB 192300Z 00000KT 3000 HZ NSC 19/16 Q1016 NOSIG
Conditions at: VOCB (COIMBATORE/PEELA, IN) observed 2300 UTC 19 January 2019
Temperature: 19.0°C (66°F)
Dewpoint: 16.0°C (61°F) [RH = 83%]
Pressure (altimeter): 30.00 inches Hg (1016.0 mb)
Winds: calm
Visibility: 1.86 miles (2.99 km)
Ceiling: at least 12,000 feet AGL
Clouds: sky clear below 12,000 feet AGL
Weather: HZ  (haze)

METAR text: VOCB 192230Z VRB03KT 3000 HZ NSC 19/16 Q1016 NOSIG
Conditions at: VOCB (COIMBATORE/PEELA, IN) observed 2230 UTC 19 January 2019
Temperature: 19.0°C (66°F)
Dewpoint: 16.0°C (61°F) [RH = 83%]
Pressure (altimeter): 30.00 inches Hg (1016.0 mb)
Winds: variable direction winds at 3 MPH (3 knots; 1.5 m/s)
Visibility: 1.86 miles (2.99 km)
Ceiling: at least 12,000 feet AGL
Clouds: sky clear below 12,000 feet AGL
Weather: HZ  (haze)

METAR text: VOCB 192100Z 02004KT 3000 HZ NSC 20/16 Q1017 NOSIG
Conditions at: VOCB (COIMBATORE/PEELA, IN) observed 2100 UTC 19 January 2019
Temperature: 20.0°C (68°F)
Dewpoint: 16.0°C (61°F) [RH = 78%]
Pressure (altimeter): 30.03 inches Hg (1017.0 mb)
Winds: from the NNE (20 degrees) at 5 MPH (4 knots; 2.1 m/s)
Visibility: 1.86 miles (2.99 km)
Ceiling: at least 12,000 feet AGL
Clouds: sky clear below 12,000 feet AGL
Weather: HZ  (haze)

METAR text: VOCB 192030Z 02004KT 3000 HZ NSC 21/16 Q1017 NOSIG
Conditions at: VOCB (COIMBATORE/PEELA, IN) observed 2030 UTC 19 January 2019
Temperature: 21.0°C (70°F)
Dewpoint: 16.0°C (61°F) [RH = 73%]
Pressure (altimeter): 30.03 inches Hg (1017.0 mb)
Winds: from the NNE (20 degrees) at 5 MPH (4 knots; 2.1 m/s)
Visibility: 1.86 miles (2.99 km)
Ceiling: at least 12,000 feet AGL
Clouds: sky clear below 12,000 feet AGL
Weather: HZ  (haze)

METAR text: VOCB 192000Z VRB02KT 3000 HZ NSC 21/16 Q1017 NOSIG
Conditions at: VOCB (COIMBATORE/PEELA, IN) observed 2000 UTC 19 January 2019
Temperature: 21.0°C (70°F)
Dewpoint: 16.0°C (61°F) [RH = 73%]
Pressure (altimeter): 30.03 inches Hg (1017.0 mb)
Winds: variable direction winds at 2 MPH (2 knots; 1.0 m/s)
Visibility: 1.86 miles (2.99 km)
Ceiling: at least 12,000 feet AGL
Clouds: sky clear below 12,000 feet AGL
Weather: HZ  (haze)

METAR text: VOCB 191900Z 05005KT 3000 HZ NSC 22/16 Q1017 NOSIG
Conditions at: VOCB (COIMBATORE/PEELA, IN) observed 1900 UTC 19 January 2019
Temperature: 22.0°C (72°F)
Dewpoint: 16.0°C (61°F) [RH = 69%]
Pressure (altimeter): 30.03 inches Hg (1017.0 mb)
Winds: from the NE (50 degrees) at 6 MPH (5 knots; 2.6 m/s)
Visibility: 1.86 miles (2.99 km)
Ceiling: at least 12,000 feet AGL
Clouds: sky clear below 12,000 feet AGL
Weather: HZ  (haze)

METAR text: VOCB 191830Z VRB03KT 3000 HZ NSC 23/13 Q1017 NOSIG
Conditions at: VOCB (COIMBATORE/PEELA, IN) observed 1830 UTC 19 January 2019
Temperature: 23.0°C (73°F)
Dewpoint: 13.0°C (55°F) [RH = 53%]
Pressure (altimeter): 30.03 inches Hg (1017.0 mb)
Winds: variable direction winds at 3 MPH (3 knots; 1.5 m/s)
Visibility: 1.86 miles (2.99 km)
Ceiling: at least 12,000 feet AGL
Clouds: sky clear below 12,000 feet AGL
Weather: HZ  (haze)

METAR text: VOCB 191800Z VRB03KT 3000 HZ NSC 23/13 Q1017 NOSIG
Conditions at: VOCB (COIMBATORE/PEELA, IN) observed 1800 UTC 19 January 2019
Temperature: 23.0°C (73°F)
Dewpoint: 13.0°C (55°F) [RH = 53%]
Pressure (altimeter): 30.03 inches Hg (1017.0 mb)
Winds: variable direction winds at 3 MPH (3 knots; 1.5 m/s)
Visibility: 1.86 miles (2.99 km)
Ceiling: at least 12,000 feet AGL
Clouds: sky clear below 12,000 feet AGL
Weather: HZ  (haze)

Forecast for: VOCB (COIMBATORE/PEELA, IN)
Text: TAF VOCB 210200Z 2103/2112 05005KT 3000 BR FEW015
Forecast period: 0300 to 0600 UTC 21 January 2019
Forecast type: FROM: standard forecast or significant change
Winds: from the NE (50 degrees) at 6 MPH (5 knots; 2.6 m/s)
Visibility: 1.86 miles (2.99 km)
Ceiling: at least 12,000 feet AGL
Clouds: few clouds at 1500 feet AGL
Weather: BR  (mist)
Text: BECMG 2106/2107 05010KT 5000 HZ
Forecast period: 0600 to 1200 UTC 21 January 2019
Forecast type: BECOMING: Conditions expected to become as follows by 0700 UTC 21 January 2019
Winds: from the NE (50 degrees) at 12 MPH (10 knots; 5.1 m/s)
Visibility: 3 miles (5 km)
Ceiling: at least 12,000 feet AGL
Clouds: few clouds at 1500 feet AGL
Weather: HZ  (haze)